Gaylord, Kansas
Current Conditions -  °F | °C
As of 6:53 PM on Sunday 23 Nov 2014 (Local Time) from KRSL Reporting Station
Clear Clear  
Wind Chill: 34°   Ceiling: Unl
Heat Index: 41°   Visibility: 10mi
Dew Point: 27°   Wind: 12mph
Humidity: 57%   Direction: 320°NW
Pressure: 29.65"   Gusts: NA
Location:  39.64°N, 98.85°W
Report Text: KRSL 240053Z AUTO 32010KT 10SM CLR 05/M03 A2965 RMK AO2 SLP045 T00501028
Loading
Personal Weather Stations






























Interactive Weather Map New forecast layout! Learn more

10-Day Weather Forecast

Advertisements
Track Severe Weather on mobile